sensor_id;sensor_type;location;lat;lon;timestamp;P1;durP1;ratioP1;P2;durP2;ratioP2
38023;SDS011;23834;48.080;11.682;2023-04-07T00:02:16;4.07;;;3.77;;
38023;SDS011;23834;48.080;11.682;2023-04-07T00:04:41;4.33;;;4.03;;
38023;SDS011;23834;48.080;11.682;2023-04-07T00:07:06;4.33;;;4.00;;
38023;SDS011;23834;48.080;11.682;2023-04-07T00:09:32;4.67;;;4.27;;
38023;SDS011;23834;48.080;11.682;2023-04-07T00:11:57;4.27;;;3.87;;
38023;SDS011;23834;48.080;11.682;2023-04-07T00:14:22;4.93;;;4.43;;
38023;SDS011;23834;48.080;11.682;2023-04-07T00:16:47;4.03;;;3.73;;
38023;SDS011;23834;48.080;11.682;2023-04-07T00:19:12;4.53;;;4.20;;
38023;SDS011;23834;48.080;11.682;2023-04-07T00:21:37;4.60;;;4.13;;
38023;SDS011;23834;48.080;11.682;2023-04-07T00:24:03;4.37;;;3.97;;
38023;SDS011;23834;48.080;11.682;2023-04-07T00:26:28;4.40;;;4.00;;
38023;SDS011;23834;48.080;11.682;2023-04-07T00:28:55;4.20;;;3.90;;
38023;SDS011;23834;48.080;11.682;2023-04-07T00:31:21;4.53;;;4.13;;
38023;SDS011;23834;48.080;11.682;2023-04-07T00:33:46;4.30;;;3.90;;
38023;SDS011;23834;48.080;11.682;2023-04-07T00:36:12;4.10;;;3.80;;
38023;SDS011;23834;48.080;11.682;2023-04-07T00:38:37;4.37;;;4.03;;
38023;SDS011;23834;48.080;11.682;2023-04-07T00:41:02;4.37;;;3.97;;
38023;SDS011;23834;48.080;11.682;2023-04-07T00:43:27;3.93;;;3.63;;
38023;SDS011;23834;48.080;11.682;2023-04-07T00:45:53;4.43;;;4.10;;
38023;SDS011;23834;48.080;11.682;2023-04-07T00:48:18;4.77;;;4.37;;
38023;SDS011;23834;48.080;11.682;2023-04-07T00:50:44;4.40;;;4.00;;
38023;SDS011;23834;48.080;11.682;2023-04-07T00:53:10;4.20;;;3.90;;
38023;SDS011;23834;48.080;11.682;2023-04-07T00:55:35;4.50;;;4.10;;
38023;SDS011;23834;48.080;11.682;2023-04-07T00:58:00;4.47;;;4.07;;
38023;SDS011;23834;48.080;11.682;2023-04-07T01:00:26;4.73;;;4.33;;
38023;SDS011;23834;48.080;11.682;2023-04-07T01:02:58;4.47;;;4.07;;
38023;SDS011;23834;48.080;11.682;2023-04-07T01:10:26;4.83;;;4.27;;
38023;SDS011;23834;48.080;11.682;2023-04-07T01:12:53;4.53;;;4.13;;
38023;SDS011;23834;48.080;11.682;2023-04-07T01:15:20;4.57;;;4.13;;
38023;SDS011;23834;48.080;11.682;2023-04-07T01:17:52;4.40;;;4.03;;
38023;SDS011;23834;48.080;11.682;2023-04-07T01:20:20;4.97;;;4.50;;
38023;SDS011;23834;48.080;11.682;2023-04-07T01:22:49;5.10;;;4.40;;
38023;SDS011;23834;48.080;11.682;2023-04-07T01:30:24;4.70;;;4.30;;
38023;SDS011;23834;48.080;11.682;2023-04-07T01:32:52;4.50;;;4.10;;
38023;SDS011;23834;48.080;11.682;2023-04-07T01:35:18;4.60;;;4.20;;
38023;SDS011;23834;48.080;11.682;2023-04-07T01:37:44;4.40;;;4.00;;
38023;SDS011;23834;48.080;11.682;2023-04-07T01:40:12;4.30;;;3.90;;
38023;SDS011;23834;48.080;11.682;2023-04-07T01:42:38;4.23;;;3.93;;
38023;SDS011;23834;48.080;11.682;2023-04-07T01:45:03;4.10;;;3.80;;
38023;SDS011;23834;48.080;11.682;2023-04-07T01:47:29;4.57;;;4.13;;
38023;SDS011;23834;48.080;11.682;2023-04-07T01:49:56;4.37;;;4.03;;
38023;SDS011;23834;48.080;11.682;2023-04-07T01:52:22;4.07;;;3.70;;
38023;SDS011;23834;48.080;11.682;2023-04-07T01:54:47;4.27;;;3.90;;
38023;SDS011;23834;48.080;11.682;2023-04-07T01:57:13;4.27;;;3.73;;
38023;SDS011;23834;48.080;11.682;2023-04-07T01:59:38;5.20;;;3.70;;
38023;SDS011;23834;48.080;11.682;2023-04-07T02:02:03;3.27;;;3.07;;
38023;SDS011;23834;48.080;11.682;2023-04-07T02:04:36;4.30;;;3.90;;
38023;SDS011;23834;48.080;11.682;2023-04-07T02:07:08;4.67;;;4.27;;
38023;SDS011;23834;48.080;11.682;2023-04-07T02:09:34;3.93;;;3.63;;
38023;SDS011;23834;48.080;11.682;2023-04-07T02:12:01;4.13;;;3.80;;
38023;SDS011;23834;48.080;11.682;2023-04-07T02:14:28;4.37;;;3.97;;
38023;SDS011;23834;48.080;11.682;2023-04-07T02:16:53;4.47;;;3.70;;
38023;SDS011;23834;48.080;11.682;2023-04-07T02:19:18;3.70;;;3.40;;
38023;SDS011;23834;48.080;11.682;2023-04-07T02:21:44;4.13;;;3.73;;
38023;SDS011;23834;48.080;11.682;2023-04-07T02:24:10;4.13;;;3.77;;
38023;SDS011;23834;48.080;11.682;2023-04-07T02:26:35;4.47;;;4.07;;
38023;SDS011;23834;48.080;11.682;2023-04-07T02:29:03;3.73;;;3.43;;
38023;SDS011;23834;48.080;11.682;2023-04-07T02:31:29;4.63;;;3.80;;
38023;SDS011;23834;48.080;11.682;2023-04-07T02:33:54;4.67;;;4.27;;
38023;SDS011;23834;48.080;11.682;2023-04-07T02:36:19;3.90;;;3.60;;
38023;SDS011;23834;48.080;11.682;2023-04-07T02:38:45;3.80;;;3.50;;
38023;SDS011;23834;48.080;11.682;2023-04-07T02:41:10;4.17;;;3.63;;
38023;SDS011;23834;48.080;11.682;2023-04-07T02:43:35;3.60;;;3.37;;
38023;SDS011;23834;48.080;11.682;2023-04-07T02:46:00;3.50;;;3.30;;
38023;SDS011;23834;48.080;11.682;2023-04-07T02:48:25;3.67;;;3.37;;
38023;SDS011;23834;48.080;11.682;2023-04-07T02:50:51;3.67;;;3.37;;
38023;SDS011;23834;48.080;11.682;2023-04-07T02:53:16;4.00;;;3.70;;
38023;SDS011;23834;48.080;11.682;2023-04-07T02:55:41;3.60;;;3.33;;
38023;SDS011;23834;48.080;11.682;2023-04-07T02:58:06;3.30;;;3.00;;
38023;SDS011;23834;48.080;11.682;2023-04-07T03:00:32;3.47;;;3.17;;
38023;SDS011;23834;48.080;11.682;2023-04-07T03:02:57;3.23;;;3.03;;
38023;SDS011;23834;48.080;11.682;2023-04-07T03:05:22;3.30;;;3.10;;
38023;SDS011;23834;48.080;11.682;2023-04-07T03:07:48;3.20;;;3.00;;
38023;SDS011;23834;48.080;11.682;2023-04-07T03:10:13;3.10;;;2.90;;
38023;SDS011;23834;48.080;11.682;2023-04-07T03:12:38;3.33;;;3.13;;
38023;SDS011;23834;48.080;11.682;2023-04-07T03:15:03;2.67;;;2.47;;
38023;SDS011;23834;48.080;11.682;2023-04-07T03:17:28;3.10;;;2.90;;
38023;SDS011;23834;48.080;11.682;2023-04-07T03:19:54;3.40;;;3.10;;
38023;SDS011;23834;48.080;11.682;2023-04-07T03:22:19;3.20;;;3.00;;
38023;SDS011;23834;48.080;11.682;2023-04-07T03:24:44;3.57;;;3.27;;
38023;SDS011;23834;48.080;11.682;2023-04-07T03:27:09;3.17;;;2.87;;
38023;SDS011;23834;48.080;11.682;2023-04-07T03:29:35;2.80;;;2.57;;
38023;SDS011;23834;48.080;11.682;2023-04-07T03:32:00;2.37;;;2.17;;
38023;SDS011;23834;48.080;11.682;2023-04-07T03:34:25;2.47;;;2.27;;
38023;SDS011;23834;48.080;11.682;2023-04-07T03:36:50;2.47;;;2.27;;
38023;SDS011;23834;48.080;11.682;2023-04-07T03:39:15;2.50;;;2.30;;
38023;SDS011;23834;48.080;11.682;2023-04-07T03:41:41;2.20;;;2.10;;
38023;SDS011;23834;48.080;11.682;2023-04-07T03:44:06;2.10;;;2.00;;
38023;SDS011;23834;48.080;11.682;2023-04-07T03:46:31;3.00;;;2.80;;
38023;SDS011;23834;48.080;11.682;2023-04-07T03:48:56;2.63;;;2.43;;
38023;SDS011;23834;48.080;11.682;2023-04-07T03:51:21;2.57;;;2.37;;
38023;SDS011;23834;48.080;11.682;2023-04-07T03:53:46;2.77;;;2.40;;
38023;SDS011;23834;48.080;11.682;2023-04-07T03:56:12;2.50;;;2.30;;
38023;SDS011;23834;48.080;11.682;2023-04-07T03:58:37;2.77;;;2.57;;
38023;SDS011;23834;48.080;11.682;2023-04-07T04:01:02;2.93;;;2.73;;
38023;SDS011;23834;48.080;11.682;2023-04-07T04:03:27;2.60;;;2.40;;
38023;SDS011;23834;48.080;11.682;2023-04-07T04:05:53;2.10;;;2.00;;
38023;SDS011;23834;48.080;11.682;2023-04-07T04:08:18;2.57;;;2.40;;
38023;SDS011;23834;48.080;11.682;2023-04-07T04:10:44;2.53;;;2.33;;
38023;SDS011;23834;48.080;11.682;2023-04-07T04:13:09;2.40;;;2.30;;
38023;SDS011;23834;48.080;11.682;2023-04-07T04:15:35;2.27;;;2.17;;
38023;SDS011;23834;48.080;11.682;2023-04-07T04:18:00;2.20;;;2.10;;
38023;SDS011;23834;48.080;11.682;2023-04-07T04:20:25;2.50;;;2.30;;
38023;SDS011;23834;48.080;11.682;2023-04-07T04:22:50;2.73;;;2.53;;
38023;SDS011;23834;48.080;11.682;2023-04-07T04:25:16;2.17;;;1.97;;
38023;SDS011;23834;48.080;11.682;2023-04-07T04:27:41;2.30;;;2.10;;
38023;SDS011;23834;48.080;11.682;2023-04-07T04:30:06;2.27;;;2.10;;
38023;SDS011;23834;48.080;11.682;2023-04-07T04:32:32;2.10;;;2.00;;
38023;SDS011;23834;48.080;11.682;2023-04-07T04:34:57;2.47;;;2.27;;
38023;SDS011;23834;48.080;11.682;2023-04-07T04:37:22;2.13;;;1.93;;
38023;SDS011;23834;48.080;11.682;2023-04-07T04:39:47;2.63;;;2.43;;
38023;SDS011;23834;48.080;11.682;2023-04-07T04:42:12;2.57;;;2.37;;
38023;SDS011;23834;48.080;11.682;2023-04-07T04:44:38;2.67;;;2.47;;
38023;SDS011;23834;48.080;11.682;2023-04-07T04:47:03;2.43;;;2.23;;
38023;SDS011;23834;48.080;11.682;2023-04-07T04:49:28;2.50;;;2.30;;
38023;SDS011;23834;48.080;11.682;2023-04-07T04:51:53;2.40;;;2.30;;
38023;SDS011;23834;48.080;11.682;2023-04-07T04:54:18;2.70;;;2.50;;
38023;SDS011;23834;48.080;11.682;2023-04-07T04:56:44;1.97;;;1.87;;
38023;SDS011;23834;48.080;11.682;2023-04-07T04:59:09;2.97;;;2.77;;
38023;SDS011;23834;48.080;11.682;2023-04-07T05:01:34;1.90;;;1.80;;
38023;SDS011;23834;48.080;11.682;2023-04-07T05:03:59;2.47;;;1.90;;
38023;SDS011;23834;48.080;11.682;2023-04-07T05:06:25;2.47;;;2.27;;
38023;SDS011;23834;48.080;11.682;2023-04-07T05:08:51;2.20;;;2.10;;
38023;SDS011;23834;48.080;11.682;2023-04-07T05:11:16;2.30;;;2.10;;
38023;SDS011;23834;48.080;11.682;2023-04-07T05:13:41;2.03;;;1.93;;
38023;SDS011;23834;48.080;11.682;2023-04-07T05:16:07;2.33;;;2.13;;
38023;SDS011;23834;48.080;11.682;2023-04-07T05:18:32;2.30;;;2.20;;
38023;SDS011;23834;48.080;11.682;2023-04-07T05:20:57;4.40;;;2.40;;
38023;SDS011;23834;48.080;11.682;2023-04-07T05:23:22;2.10;;;2.00;;
38023;SDS011;23834;48.080;11.682;2023-04-07T05:25:47;2.23;;;2.10;;
38023;SDS011;23834;48.080;11.682;2023-04-07T05:28:13;2.20;;;2.10;;
38023;SDS011;23834;48.080;11.682;2023-04-07T05:30:38;2.67;;;2.47;;
38023;SDS011;23834;48.080;11.682;2023-04-07T05:33:03;2.20;;;2.10;;
38023;SDS011;23834;48.080;11.682;2023-04-07T05:35:28;1.87;;;1.77;;
38023;SDS011;23834;48.080;11.682;2023-04-07T05:37:54;2.40;;;2.20;;
38023;SDS011;23834;48.080;11.682;2023-04-07T05:40:19;2.37;;;2.17;;
38023;SDS011;23834;48.080;11.682;2023-04-07T05:42:44;2.07;;;1.97;;
38023;SDS011;23834;48.080;11.682;2023-04-07T05:45:10;2.60;;;2.40;;
38023;SDS011;23834;48.080;11.682;2023-04-07T05:47:35;2.10;;;2.00;;
38023;SDS011;23834;48.080;11.682;2023-04-07T05:50:00;2.20;;;2.00;;
38023;SDS011;23834;48.080;11.682;2023-04-07T05:52:25;2.03;;;1.93;;
38023;SDS011;23834;48.080;11.682;2023-04-07T05:54:51;2.43;;;2.23;;
38023;SDS011;23834;48.080;11.682;2023-04-07T05:57:16;2.07;;;1.90;;
38023;SDS011;23834;48.080;11.682;2023-04-07T05:59:41;2.47;;;2.37;;
38023;SDS011;23834;48.080;11.682;2023-04-07T06:02:06;2.00;;;1.87;;
38023;SDS011;23834;48.080;11.682;2023-04-07T06:04:31;2.10;;;2.00;;
38023;SDS011;23834;48.080;11.682;2023-04-07T06:06:59;2.17;;;2.07;;
38023;SDS011;23834;48.080;11.682;2023-04-07T06:09:24;1.67;;;1.57;;
38023;SDS011;23834;48.080;11.682;2023-04-07T06:11:50;2.10;;;1.60;;
38023;SDS011;23834;48.080;11.682;2023-04-07T06:14:16;2.97;;;2.10;;
38023;SDS011;23834;48.080;11.682;2023-04-07T06:16:41;1.97;;;1.87;;
38023;SDS011;23834;48.080;11.682;2023-04-07T06:19:06;2.20;;;2.10;;
38023;SDS011;23834;48.080;11.682;2023-04-07T06:21:32;2.10;;;1.90;;
38023;SDS011;23834;48.080;11.682;2023-04-07T06:23:57;2.30;;;1.93;;
38023;SDS011;23834;48.080;11.682;2023-04-07T06:26:22;1.77;;;1.67;;
38023;SDS011;23834;48.080;11.682;2023-04-07T06:28:48;2.10;;;1.90;;
38023;SDS011;23834;48.080;11.682;2023-04-07T06:31:13;2.33;;;2.13;;
38023;SDS011;23834;48.080;11.682;2023-04-07T06:33:38;2.30;;;2.10;;
38023;SDS011;23834;48.080;11.682;2023-04-07T06:36:03;1.97;;;1.77;;
38023;SDS011;23834;48.080;11.682;2023-04-07T06:38:28;2.10;;;1.93;;
38023;SDS011;23834;48.080;11.682;2023-04-07T06:40:54;2.00;;;1.90;;
38023;SDS011;23834;48.080;11.682;2023-04-07T06:43:19;1.80;;;1.70;;
38023;SDS011;23834;48.080;11.682;2023-04-07T06:45:44;1.97;;;1.87;;
38023;SDS011;23834;48.080;11.682;2023-04-07T06:48:09;2.10;;;2.00;;
38023;SDS011;23834;48.080;11.682;2023-04-07T06:50:35;2.13;;;2.03;;
38023;SDS011;23834;48.080;11.682;2023-04-07T06:53:01;1.73;;;1.63;;
38023;SDS011;23834;48.080;11.682;2023-04-07T06:55:26;2.17;;;2.07;;
38023;SDS011;23834;48.080;11.682;2023-04-07T06:57:51;2.23;;;2.13;;
38023;SDS011;23834;48.080;11.682;2023-04-07T07:00:16;2.10;;;2.00;;
38023;SDS011;23834;48.080;11.682;2023-04-07T07:02:42;2.03;;;1.80;;
38023;SDS011;23834;48.080;11.682;2023-04-07T07:05:08;1.80;;;1.70;;
38023;SDS011;23834;48.080;11.682;2023-04-07T07:07:33;2.40;;;2.30;;
38023;SDS011;23834;48.080;11.682;2023-04-07T07:09:58;2.20;;;2.10;;
38023;SDS011;23834;48.080;11.682;2023-04-07T07:12:23;1.93;;;1.60;;
38023;SDS011;23834;48.080;11.682;2023-04-07T07:14:48;2.07;;;1.90;;
38023;SDS011;23834;48.080;11.682;2023-04-07T07:17:14;2.23;;;2.00;;
38023;SDS011;23834;48.080;11.682;2023-04-07T07:19:39;2.33;;;2.20;;
38023;SDS011;23834;48.080;11.682;2023-04-07T07:22:04;1.77;;;1.67;;
38023;SDS011;23834;48.080;11.682;2023-04-07T07:24:29;2.07;;;1.97;;
38023;SDS011;23834;48.080;11.682;2023-04-07T07:26:57;2.07;;;1.77;;
38023;SDS011;23834;48.080;11.682;2023-04-07T07:29:23;1.80;;;1.70;;
38023;SDS011;23834;48.080;11.682;2023-04-07T07:31:48;2.00;;;1.90;;
38023;SDS011;23834;48.080;11.682;2023-04-07T07:34:13;1.93;;;1.80;;
38023;SDS011;23834;48.080;11.682;2023-04-07T07:36:38;2.10;;;2.00;;
38023;SDS011;23834;48.080;11.682;2023-04-07T07:39:03;1.93;;;1.83;;
38023;SDS011;23834;48.080;11.682;2023-04-07T07:41:29;1.90;;;1.80;;
38023;SDS011;23834;48.080;11.682;2023-04-07T07:43:54;2.07;;;1.90;;
38023;SDS011;23834;48.080;11.682;2023-04-07T07:46:20;2.00;;;1.90;;
38023;SDS011;23834;48.080;11.682;2023-04-07T07:48:45;1.90;;;1.80;;
38023;SDS011;23834;48.080;11.682;2023-04-07T07:51:10;1.90;;;1.80;;
38023;SDS011;23834;48.080;11.682;2023-04-07T07:53:35;1.90;;;1.77;;
38023;SDS011;23834;48.080;11.682;2023-04-07T07:56:01;2.37;;;2.17;;
38023;SDS011;23834;48.080;11.682;2023-04-07T07:58:26;2.17;;;1.97;;
38023;SDS011;23834;48.080;11.682;2023-04-07T08:00:51;2.40;;;1.73;;
38023;SDS011;23834;48.080;11.682;2023-04-07T08:03:16;2.20;;;2.10;;
38023;SDS011;23834;48.080;11.682;2023-04-07T08:05:43;1.93;;;1.63;;
38023;SDS011;23834;48.080;11.682;2023-04-07T08:08:08;2.07;;;1.90;;
38023;SDS011;23834;48.080;11.682;2023-04-07T08:10:34;1.80;;;1.70;;
38023;SDS011;23834;48.080;11.682;2023-04-07T08:12:59;2.10;;;2.00;;
38023;SDS011;23834;48.080;11.682;2023-04-07T08:15:24;1.77;;;1.67;;
38023;SDS011;23834;48.080;11.682;2023-04-07T08:17:50;1.73;;;1.63;;
38023;SDS011;23834;48.080;11.682;2023-04-07T08:20:16;1.80;;;1.70;;
38023;SDS011;23834;48.080;11.682;2023-04-07T08:22:41;1.80;;;1.70;;
38023;SDS011;23834;48.080;11.682;2023-04-07T08:25:07;1.90;;;1.80;;
38023;SDS011;23834;48.080;11.682;2023-04-07T08:27:32;1.90;;;1.80;;
38023;SDS011;23834;48.080;11.682;2023-04-07T08:29:59;1.67;;;1.57;;
38023;SDS011;23834;48.080;11.682;2023-04-07T08:32:24;1.97;;;1.87;;
38023;SDS011;23834;48.080;11.682;2023-04-07T08:34:49;1.60;;;1.50;;
38023;SDS011;23834;48.080;11.682;2023-04-07T08:37:15;1.70;;;1.60;;
38023;SDS011;23834;48.080;11.682;2023-04-07T08:39:40;1.70;;;1.60;;
38023;SDS011;23834;48.080;11.682;2023-04-07T08:42:06;1.70;;;1.60;;
38023;SDS011;23834;48.080;11.682;2023-04-07T08:44:32;1.70;;;1.60;;
38023;SDS011;23834;48.080;11.682;2023-04-07T08:46:57;1.60;;;1.60;;
38023;SDS011;23834;48.080;11.682;2023-04-07T08:49:25;1.80;;;1.70;;
38023;SDS011;23834;48.080;11.682;2023-04-07T08:51:51;1.60;;;1.50;;
38023;SDS011;23834;48.080;11.682;2023-04-07T08:54:17;1.60;;;1.50;;
38023;SDS011;23834;48.080;11.682;2023-04-07T08:56:45;1.73;;;1.63;;
38023;SDS011;23834;48.080;11.682;2023-04-07T08:59:11;2.00;;;1.80;;
38023;SDS011;23834;48.080;11.682;2023-04-07T09:01:36;1.60;;;1.50;;
38023;SDS011;23834;48.080;11.682;2023-04-07T09:04:03;1.70;;;1.40;;
38023;SDS011;23834;48.080;11.682;2023-04-07T09:06:29;1.90;;;1.80;;
38023;SDS011;23834;48.080;11.682;2023-04-07T09:08:56;1.87;;;1.77;;
38023;SDS011;23834;48.080;11.682;2023-04-07T09:11:21;1.70;;;1.60;;
38023;SDS011;23834;48.080;11.682;2023-04-07T09:13:48;1.70;;;1.60;;
38023;SDS011;23834;48.080;11.682;2023-04-07T09:16:13;1.83;;;1.73;;
38023;SDS011;23834;48.080;11.682;2023-04-07T09:18:38;1.90;;;1.80;;
38023;SDS011;23834;48.080;11.682;2023-04-07T09:21:04;1.70;;;1.60;;
38023;SDS011;23834;48.080;11.682;2023-04-07T09:25:55;1.73;;;1.63;;
38023;SDS011;23834;48.080;11.682;2023-04-07T09:28:20;1.83;;;1.67;;
38023;SDS011;23834;48.080;11.682;2023-04-07T09:30:53;1.80;;;1.70;;
38023;SDS011;23834;48.080;11.682;2023-04-07T09:33:25;1.70;;;1.60;;
38023;SDS011;23834;48.080;11.682;2023-04-07T09:35:51;1.50;;;1.40;;
38023;SDS011;23834;48.080;11.682;2023-04-07T09:38:19;1.73;;;1.63;;
38023;SDS011;23834;48.080;11.682;2023-04-07T09:40:45;1.70;;;1.60;;
38023;SDS011;23834;48.080;11.682;2023-04-07T09:43:16;1.97;;;1.83;;
38023;SDS011;23834;48.080;11.682;2023-04-07T09:45:41;2.03;;;1.80;;
38023;SDS011;23834;48.080;11.682;2023-04-07T09:48:07;1.50;;;1.50;;
38023;SDS011;23834;48.080;11.682;2023-04-07T09:50:38;1.87;;;1.77;;
38023;SDS011;23834;48.080;11.682;2023-04-07T09:53:03;1.83;;;1.73;;
38023;SDS011;23834;48.080;11.682;2023-04-07T09:55:29;2.10;;;1.57;;
38023;SDS011;23834;48.080;11.682;2023-04-07T09:57:54;1.80;;;1.70;;
38023;SDS011;23834;48.080;11.682;2023-04-07T10:00:20;1.73;;;1.63;;
38023;SDS011;23834;48.080;11.682;2023-04-07T10:02:45;1.73;;;1.63;;
38023;SDS011;23834;48.080;11.682;2023-04-07T10:05:11;1.80;;;1.70;;
38023;SDS011;23834;48.080;11.682;2023-04-07T10:07:37;2.00;;;1.80;;
38023;SDS011;23834;48.080;11.682;2023-04-07T10:10:02;2.00;;;1.90;;
38023;SDS011;23834;48.080;11.682;2023-04-07T10:12:28;1.70;;;1.60;;
38023;SDS011;23834;48.080;11.682;2023-04-07T10:14:55;1.60;;;1.50;;
38023;SDS011;23834;48.080;11.682;2023-04-07T10:17:21;1.43;;;1.33;;
38023;SDS011;23834;48.080;11.682;2023-04-07T10:19:46;1.83;;;1.73;;
38023;SDS011;23834;48.080;11.682;2023-04-07T10:22:12;2.23;;;2.10;;
38023;SDS011;23834;48.080;11.682;2023-04-07T10:27:20;1.90;;;1.60;;
38023;SDS011;23834;48.080;11.682;2023-04-07T10:29:47;1.40;;;1.30;;
38023;SDS011;23834;48.080;11.682;2023-04-07T10:32:13;1.87;;;1.77;;
38023;SDS011;23834;48.080;11.682;2023-04-07T10:37:19;1.57;;;1.47;;
38023;SDS011;23834;48.080;11.682;2023-04-07T10:39:50;1.77;;;1.67;;
38023;SDS011;23834;48.080;11.682;2023-04-07T10:44:59;1.47;;;1.37;;
38023;SDS011;23834;48.080;11.682;2023-04-07T10:47:25;1.60;;;1.50;;
38023;SDS011;23834;48.080;11.682;2023-04-07T10:52:34;1.60;;;1.50;;
38023;SDS011;23834;48.080;11.682;2023-04-07T10:58:11;1.50;;;1.40;;
38023;SDS011;23834;48.080;11.682;2023-04-07T11:00:28;1.97;;;1.87;;
38023;SDS011;23834;48.080;11.682;2023-04-07T11:02:53;1.80;;;1.70;;
38023;SDS011;23834;48.080;11.682;2023-04-07T11:05:19;2.40;;;1.93;;
38023;SDS011;23834;48.080;11.682;2023-04-07T11:07:46;1.80;;;1.70;;
38023;SDS011;23834;48.080;11.682;2023-04-07T11:10:14;1.33;;;1.33;;
38023;SDS011;23834;48.080;11.682;2023-04-07T11:12:40;1.50;;;1.40;;
38023;SDS011;23834;48.080;11.682;2023-04-07T11:15:18;1.60;;;1.50;;
38023;SDS011;23834;48.080;11.682;2023-04-07T11:17:43;1.77;;;1.67;;
38023;SDS011;23834;48.080;11.682;2023-04-07T11:20:08;1.63;;;1.57;;
38023;SDS011;23834;48.080;11.682;2023-04-07T11:22:34;1.73;;;1.63;;
38023;SDS011;23834;48.080;11.682;2023-04-07T11:25:01;1.80;;;1.70;;
38023;SDS011;23834;48.080;11.682;2023-04-07T11:27:26;1.60;;;1.53;;
38023;SDS011;23834;48.080;11.682;2023-04-07T11:29:53;2.33;;;1.73;;
38023;SDS011;23834;48.080;11.682;2023-04-07T11:32:21;1.60;;;1.50;;
38023;SDS011;23834;48.080;11.682;2023-04-07T11:34:46;1.60;;;1.50;;
38023;SDS011;23834;48.080;11.682;2023-04-07T11:37:19;1.87;;;1.77;;
38023;SDS011;23834;48.080;11.682;2023-04-07T11:39:50;1.20;;;1.20;;
38023;SDS011;23834;48.080;11.682;2023-04-07T11:42:15;1.57;;;1.47;;
38023;SDS011;23834;48.080;11.682;2023-04-07T11:44:46;1.50;;;1.40;;
38023;SDS011;23834;48.080;11.682;2023-04-07T11:47:12;1.33;;;1.33;;
38023;SDS011;23834;48.080;11.682;2023-04-07T11:49:43;1.60;;;1.50;;
38023;SDS011;23834;48.080;11.682;2023-04-07T11:52:08;2.00;;;1.60;;
38023;SDS011;23834;48.080;11.682;2023-04-07T11:54:46;1.60;;;1.50;;
38023;SDS011;23834;48.080;11.682;2023-04-07T11:57:12;1.20;;;1.20;;
38023;SDS011;23834;48.080;11.682;2023-04-07T11:59:37;1.80;;;1.70;;
38023;SDS011;23834;48.080;11.682;2023-04-07T12:02:03;1.73;;;1.50;;
38023;SDS011;23834;48.080;11.682;2023-04-07T12:04:28;1.63;;;1.53;;
38023;SDS011;23834;48.080;11.682;2023-04-07T12:06:53;1.70;;;1.37;;
38023;SDS011;23834;48.080;11.682;2023-04-07T12:09:32;1.33;;;1.23;;
38023;SDS011;23834;48.080;11.682;2023-04-07T12:11:59;1.80;;;1.70;;
38023;SDS011;23834;48.080;11.682;2023-04-07T12:14:25;1.60;;;1.47;;
38023;SDS011;23834;48.080;11.682;2023-04-07T12:16:51;1.53;;;1.43;;
38023;SDS011;23834;48.080;11.682;2023-04-07T12:19:17;1.30;;;1.20;;
38023;SDS011;23834;48.080;11.682;2023-04-07T12:21:42;1.47;;;1.37;;
38023;SDS011;23834;48.080;11.682;2023-04-07T12:24:08;2.40;;;1.50;;
38023;SDS011;23834;48.080;11.682;2023-04-07T12:26:33;1.43;;;1.33;;
38023;SDS011;23834;48.080;11.682;2023-04-07T12:28:58;1.40;;;1.30;;
38023;SDS011;23834;48.080;11.682;2023-04-07T12:31:29;2.00;;;1.47;;
38023;SDS011;23834;48.080;11.682;2023-04-07T12:33:54;1.37;;;1.27;;
38023;SDS011;23834;48.080;11.682;2023-04-07T12:36:19;1.40;;;1.30;;
38023;SDS011;23834;48.080;11.682;2023-04-07T12:38:45;1.50;;;1.40;;
38023;SDS011;23834;48.080;11.682;2023-04-07T12:41:11;1.50;;;1.40;;
38023;SDS011;23834;48.080;11.682;2023-04-07T12:43:36;1.60;;;1.50;;
38023;SDS011;23834;48.080;11.682;2023-04-07T12:46:01;1.63;;;1.53;;
38023;SDS011;23834;48.080;11.682;2023-04-07T12:48:26;1.60;;;1.50;;
38023;SDS011;23834;48.080;11.682;2023-04-07T12:50:51;1.33;;;1.30;;
38023;SDS011;23834;48.080;11.682;2023-04-07T12:53:17;1.27;;;1.17;;
38023;SDS011;23834;48.080;11.682;2023-04-07T12:55:42;2.17;;;1.40;;
38023;SDS011;23834;48.080;11.682;2023-04-07T12:58:07;1.20;;;1.07;;
38023;SDS011;23834;48.080;11.682;2023-04-07T13:00:33;1.33;;;1.23;;
38023;SDS011;23834;48.080;11.682;2023-04-07T13:02:58;1.87;;;1.77;;
38023;SDS011;23834;48.080;11.682;2023-04-07T13:05:23;1.47;;;1.37;;
38023;SDS011;23834;48.080;11.682;2023-04-07T13:07:49;1.50;;;1.17;;
38023;SDS011;23834;48.080;11.682;2023-04-07T13:10:14;1.50;;;1.40;;
38023;SDS011;23834;48.080;11.682;2023-04-07T13:12:39;1.40;;;1.30;;
38023;SDS011;23834;48.080;11.682;2023-04-07T13:15:05;1.53;;;1.43;;
38023;SDS011;23834;48.080;11.682;2023-04-07T13:17:31;1.50;;;1.40;;
38023;SDS011;23834;48.080;11.682;2023-04-07T13:19:56;1.20;;;1.10;;
38023;SDS011;23834;48.080;11.682;2023-04-07T13:22:21;1.30;;;1.30;;
38023;SDS011;23834;48.080;11.682;2023-04-07T13:24:47;1.50;;;1.40;;
38023;SDS011;23834;48.080;11.682;2023-04-07T13:27:13;1.80;;;1.70;;
38023;SDS011;23834;48.080;11.682;2023-04-07T13:29:38;1.30;;;1.20;;
38023;SDS011;23834;48.080;11.682;2023-04-07T13:32:09;1.33;;;1.23;;
38023;SDS011;23834;48.080;11.682;2023-04-07T13:34:37;1.50;;;1.40;;
38023;SDS011;23834;48.080;11.682;2023-04-07T13:37:02;1.13;;;1.13;;
38023;SDS011;23834;48.080;11.682;2023-04-07T13:39:28;1.43;;;1.33;;
38023;SDS011;23834;48.080;11.682;2023-04-07T13:41:54;1.47;;;1.37;;
38023;SDS011;23834;48.080;11.682;2023-04-07T13:44:20;1.53;;;1.17;;
38023;SDS011;23834;48.080;11.682;2023-04-07T13:46:46;1.50;;;1.40;;
38023;SDS011;23834;48.080;11.682;2023-04-07T13:49:11;1.60;;;1.50;;
38023;SDS011;23834;48.080;11.682;2023-04-07T13:51:36;1.70;;;1.60;;
38023;SDS011;23834;48.080;11.682;2023-04-07T13:54:01;1.17;;;1.07;;
38023;SDS011;23834;48.080;11.682;2023-04-07T13:56:27;1.40;;;1.30;;
38023;SDS011;23834;48.080;11.682;2023-04-07T13:58:52;1.77;;;1.63;;
38023;SDS011;23834;48.080;11.682;2023-04-07T14:01:17;1.40;;;1.30;;
38023;SDS011;23834;48.080;11.682;2023-04-07T14:03:43;1.47;;;1.37;;
38023;SDS011;23834;48.080;11.682;2023-04-07T14:06:09;1.67;;;1.57;;
38023;SDS011;23834;48.080;11.682;2023-04-07T14:08:34;1.37;;;1.37;;
38023;SDS011;23834;48.080;11.682;2023-04-07T14:10:59;1.37;;;1.27;;
38023;SDS011;23834;48.080;11.682;2023-04-07T14:13:24;1.30;;;1.30;;
38023;SDS011;23834;48.080;11.682;2023-04-07T14:15:50;1.80;;;1.70;;
38023;SDS011;23834;48.080;11.682;2023-04-07T14:18:17;1.50;;;1.40;;
38023;SDS011;23834;48.080;11.682;2023-04-07T14:20:42;1.93;;;1.63;;
38023;SDS011;23834;48.080;11.682;2023-04-07T14:23:07;1.50;;;1.40;;
38023;SDS011;23834;48.080;11.682;2023-04-07T14:25:32;1.50;;;1.40;;
38023;SDS011;23834;48.080;11.682;2023-04-07T14:27:58;2.00;;;1.80;;
38023;SDS011;23834;48.080;11.682;2023-04-07T14:30:23;1.70;;;1.60;;
38023;SDS011;23834;48.080;11.682;2023-04-07T14:32:48;1.10;;;1.00;;
38023;SDS011;23834;48.080;11.682;2023-04-07T14:35:14;1.73;;;1.63;;
38023;SDS011;23834;48.080;11.682;2023-04-07T14:37:39;1.77;;;1.67;;
38023;SDS011;23834;48.080;11.682;2023-04-07T14:40:05;1.53;;;1.43;;
38023;SDS011;23834;48.080;11.682;2023-04-07T14:42:31;1.93;;;1.63;;
38023;SDS011;23834;48.080;11.682;2023-04-07T14:44:57;1.70;;;1.60;;
38023;SDS011;23834;48.080;11.682;2023-04-07T14:47:23;1.50;;;1.40;;
38023;SDS011;23834;48.080;11.682;2023-04-07T14:49:49;1.60;;;1.50;;
38023;SDS011;23834;48.080;11.682;2023-04-07T14:52:14;1.40;;;1.30;;